IVAO ES Tour IFR-A 2013 Etapa 12

IVAO ES Tour IFR-A 2013 Etapa 12

Murcia ( LELC ) – Salamanca ( LESA )

Datos generales del vuelo
 Fecha 03-12-2013  Avión  B737-800 winglets
 Ruta ALT UL150 CJN UN733 ZANKO UL14 MINVI BBI  Nivel de vuelo FL350
 Origen LELC  Destino LESA
 Velocidad M0.785  Distancia 345Nm
 Distancia real 288Nm ETE 01:05
 ETA 12:15Z  FOB 02:45
 Hora salida 11:00Z Hora llegada 12:05Z
 Pax 152 TOW 68394Kg
 MTOW  78471Kg Fuel 7362Kg
 Fuel utilizado 3086Kg ZFW 61031Kg
Peso carga 8979Kg Peso pasaje 10639Kg
V1 131Knots Vr 140Knots
 V2 149Knots  Vref 149Knots
 Velocidad vertical toma
116,9 ft/m  

 

Datos LELC

Metar: LELC 031000Z 34003KT 9999 OVC050 13/05 Q1026 NOSIG
Pista Activa:  05R
Salida: ALT2E

Datos LESA

Metar: LESA 031130Z 00000KT 9000 NSC 03/M01 Q1026
Pista Activa: 21
Llegada: n/a
App:  ILS 21

 

 

 

Deja una respuesta